createdAt,value
2022-09-15T00:00:11.469Z,83.31
2022-09-15T00:00:43.602Z,83.74
2022-09-15T00:01:16.276Z,83.38
2022-09-15T00:01:48.222Z,83.24
2022-09-15T00:02:20.228Z,83.20
2022-09-15T00:02:52.337Z,83.10
2022-09-15T00:03:24.832Z,83.07
2022-09-15T00:03:57.299Z,83.05
2022-09-15T00:04:29.137Z,83.01
2022-09-15T00:05:01.094Z,83.07
2022-09-15T00:05:32.994Z,83.04
2022-09-15T00:06:05.888Z,82.99
2022-09-15T00:06:37.815Z,83.08
2022-09-15T00:07:10.113Z,83.16
2022-09-15T00:07:42.357Z,83.14
2022-09-15T00:08:14.674Z,82.97
2022-09-15T00:08:46.652Z,82.71
2022-09-15T00:09:18.732Z,82.36
2022-09-15T00:09:50.560Z,82.24
2022-09-15T00:10:22.487Z,82.41
2022-09-15T00:11:06.014Z,82.29
2022-09-15T00:11:38.522Z,82.09
2022-09-15T00:12:10.435Z,81.68
2022-09-15T00:12:42.296Z,81.23
2022-09-15T00:13:15.002Z,81.10
2022-09-15T00:13:47.081Z,81.48
2022-09-15T00:14:19.254Z,81.31
2022-09-15T00:14:51.157Z,81.52
2022-09-15T00:15:23.701Z,81.59
2022-09-15T00:15:55.885Z,81.71
2022-09-15T00:16:30.963Z,81.98
2022-09-15T00:17:03.482Z,82.14
2022-09-15T00:17:35.404Z,82.35
2022-09-15T00:18:07.820Z,82.48
2022-09-15T00:18:40.648Z,82.67
2022-09-15T00:19:12.552Z,82.54
2022-09-15T00:19:44.425Z,82.71
2022-09-15T00:20:20.972Z,83.00
2022-09-15T00:20:52.802Z,83.03
2022-09-15T00:21:28.939Z,83.23
2022-09-15T00:22:00.913Z,83.72
2022-09-15T00:22:33.462Z,84.26
2022-09-15T00:23:05.305Z,84.43
2022-09-15T00:23:38.241Z,84.75
2022-09-15T00:24:10.555Z,84.65
2022-09-15T00:24:42.442Z,84.59
2022-09-15T00:25:15.622Z,85.07
2022-09-15T00:25:51.101Z,85.27
2022-09-15T00:26:25.591Z,85.81
2022-09-15T00:26:57.478Z,85.78
2022-09-15T00:27:29.413Z,85.37
2022-09-15T00:28:01.666Z,85.69
2022-09-15T00:28:33.610Z,85.38
2022-09-15T00:29:05.701Z,85.37
2022-09-15T00:29:37.841Z,85.18
2022-09-15T00:30:10.084Z,85.12
2022-09-15T00:30:48.288Z,85.22
2022-09-15T00:31:22.755Z,85.45
2022-09-15T00:31:54.743Z,85.82
2022-09-15T00:32:27.161Z,85.98
2022-09-15T00:32:59.015Z,86.00
2022-09-15T00:33:31.173Z,85.53
2022-09-15T00:34:03.182Z,85.69
2022-09-15T00:34:35.339Z,85.82
2022-09-15T00:35:07.567Z,85.95
2022-09-15T00:35:41.313Z,85.82
2022-09-15T00:36:14.526Z,85.64
2022-09-15T00:36:46.425Z,85.42
2022-09-15T00:37:18.308Z,85.41
2022-09-15T00:37:50.162Z,85.39
2022-09-15T00:38:22.047Z,85.34
2022-09-15T00:38:55.059Z,85.18
2022-09-15T00:39:26.912Z,84.57
2022-09-15T00:39:58.828Z,84.56
2022-09-15T00:40:30.853Z,83.68
2022-09-15T00:41:03.909Z,83.72
2022-09-15T00:41:35.823Z,83.81
2022-09-15T00:42:07.931Z,83.96
2022-09-15T00:42:41.766Z,84.11
2022-09-15T00:43:14.580Z,84.34
2022-09-15T00:43:56.242Z,84.64
2022-09-15T00:44:37.177Z,84.68
2022-09-15T00:45:16.055Z,84.64
2022-09-15T00:45:48.622Z,84.54
2022-09-15T00:46:27.361Z,84.67
2022-09-15T00:47:18.344Z,84.92
2022-09-15T00:47:52.097Z,85.45
2022-09-15T00:48:23.970Z,85.61
2022-09-15T00:49:22.189Z,85.71
2022-09-15T00:50:01.501Z,86.30
2022-09-15T00:50:34.439Z,86.73
2022-09-15T00:51:08.797Z,86.47
2022-09-15T00:51:48.057Z,86.29
2022-09-15T00:52:47.856Z,86.18
2022-09-15T00:53:20.836Z,85.91
2022-09-15T00:53:53.491Z,85.11
2022-09-15T00:54:54.784Z,85.00
2022-09-15T00:55:39.481Z,84.93
2022-09-15T00:56:13.472Z,85.04
2022-09-15T00:56:48.602Z,84.94
2022-09-15T00:57:37.117Z,84.99
2022-09-15T00:58:13.171Z,85.19
2022-09-15T00:58:52.072Z,85.06
2022-09-15T00:59:28.546Z,85.08
2022-09-15T01:00:03.754Z,84.93
2022-09-15T01:00:36.816Z,84.94
2022-09-15T01:01:09.166Z,84.85
2022-09-15T01:01:43.222Z,84.81
2022-09-15T01:02:27.984Z,84.68
2022-09-15T01:03:00.485Z,84.73
2022-09-15T01:03:33.576Z,84.84
2022-09-15T01:04:05.543Z,85.04
2022-09-15T01:04:37.876Z,85.08
2022-09-15T01:05:13.886Z,85.05
2022-09-15T01:05:54.416Z,84.96
2022-09-15T01:06:49.285Z,85.07
2022-09-15T01:07:37.155Z,85.10
2022-09-15T01:08:19.128Z,85.44
2022-09-15T01:09:11.179Z,85.09
2022-09-15T01:09:48.951Z,85.05
2022-09-15T01:10:36.385Z,85.08
2022-09-15T01:11:08.746Z,84.95
2022-09-15T01:11:41.922Z,84.91
2022-09-15T01:12:14.116Z,84.77
2022-09-15T01:12:46.480Z,84.71
2022-09-15T01:13:18.415Z,84.60
2022-09-15T01:13:50.294Z,84.45
2022-09-15T01:14:22.238Z,84.37
2022-09-15T01:14:54.966Z,84.44
2022-09-15T01:15:49.947Z,84.38
2022-09-15T01:16:40.343Z,84.33
2022-09-15T01:17:40.980Z,84.71
2022-09-15T01:18:20.968Z,84.55
2022-09-15T01:19:32.360Z,84.55
2022-09-15T01:20:31.748Z,84.32
2022-09-15T01:21:16.130Z,84.22
2022-09-15T01:21:53.698Z,84.25
2022-09-15T01:23:06.116Z,84.26
2022-09-15T01:23:58.614Z,84.52
2022-09-15T01:25:01.725Z,84.41
2022-09-15T01:26:01.200Z,84.42
2022-09-15T01:27:38.144Z,84.20
2022-09-15T01:28:49.382Z,84.34
2022-09-15T01:29:27.037Z,84.61
2022-09-15T01:30:17.080Z,84.76
2022-09-15T01:31:08.377Z,85.41
2022-09-15T01:32:16.330Z,86.16
2022-09-15T01:33:06.611Z,86.08
2022-09-15T01:34:09.438Z,85.63
2022-09-15T01:34:48.613Z,85.08
2022-09-15T01:35:35.302Z,85.02
2022-09-15T01:36:28.225Z,84.97
2022-09-15T01:37:10.048Z,84.82
2022-09-15T01:37:50.898Z,84.65
2022-09-15T01:38:30.833Z,84.58
2022-09-15T01:39:19.179Z,84.64
2022-09-15T01:39:53.248Z,84.89
2022-09-15T01:40:30.696Z,84.84
2022-09-15T01:41:16.192Z,84.83
2022-09-15T01:41:53.393Z,84.87
2022-09-15T01:42:27.235Z,84.94
2022-09-15T01:43:01.844Z,84.94
2022-09-15T01:43:39.275Z,84.91
2022-09-15T01:44:22.181Z,85.01
2022-09-15T01:45:07.448Z,85.23
2022-09-15T01:45:42.516Z,85.14
2022-09-15T01:46:17.325Z,84.86
2022-09-15T01:46:56.449Z,84.73
2022-09-15T01:47:29.988Z,84.72
2022-09-15T01:48:05.541Z,84.74
2022-09-15T01:48:38.569Z,84.72
2022-09-15T01:49:15.688Z,84.81
2022-09-15T01:49:56.589Z,84.67
2022-09-15T01:50:37.204Z,84.76
2022-09-15T01:51:09.550Z,84.75
2022-09-15T01:51:44.022Z,84.96
2022-09-15T01:52:18.065Z,85.08
2022-09-15T01:52:55.056Z,85.06
2022-09-15T01:53:28.750Z,85.06
2022-09-15T01:54:03.917Z,85.34
2022-09-15T01:54:40.421Z,85.52
2022-09-15T01:55:21.462Z,85.45
2022-09-15T01:56:13.390Z,85.46
2022-09-15T01:56:45.300Z,85.32
2022-09-15T01:57:21.408Z,85.17
2022-09-15T01:57:53.380Z,85.32
2022-09-15T01:58:25.333Z,85.47
2022-09-15T01:58:58.017Z,85.68
2022-09-15T01:59:29.949Z,85.86
2022-09-15T02:00:02.376Z,86.16
2022-09-15T02:00:44.151Z,86.13
2022-09-15T02:01:29.835Z,86.09
2022-09-15T02:02:12.513Z,86.11
2022-09-15T02:02:55.116Z,86.22
2022-09-15T02:03:55.428Z,85.99
2022-09-15T02:04:52.953Z,85.67
2022-09-15T02:05:32.375Z,85.49
2022-09-15T02:06:11.089Z,85.67
2022-09-15T02:06:54.854Z,85.86
2022-09-15T02:07:39.160Z,85.79
2022-09-15T02:08:28.544Z,85.80
2022-09-15T02:09:04.288Z,85.90
2022-09-15T02:09:44.460Z,85.85
2022-09-15T02:10:19.535Z,85.87
2022-09-15T02:11:08.479Z,85.90
2022-09-15T02:12:00.981Z,86.19
2022-09-15T02:12:47.874Z,86.22
2022-09-15T02:13:48.677Z,86.73
2022-09-15T02:14:49.323Z,86.63
2022-09-15T02:15:42.256Z,87.63
2022-09-15T02:16:20.161Z,87.99
2022-09-15T02:16:54.596Z,87.96
2022-09-15T02:17:29.492Z,87.59
2022-09-15T02:18:06.114Z,87.57
2022-09-15T02:19:02.839Z,87.42
2022-09-15T02:19:41.701Z,87.29
2022-09-15T02:20:34.348Z,87.11
2022-09-15T02:21:18.901Z,87.00
2022-09-15T02:21:57.271Z,87.14
2022-09-15T02:22:32.742Z,87.16
2022-09-15T02:23:13.290Z,87.13
2022-09-15T02:23:51.352Z,87.17
2022-09-15T02:24:51.751Z,87.66
2022-09-15T02:25:32.765Z,87.49
2022-09-15T02:26:17.570Z,87.29
2022-09-15T02:26:51.953Z,87.12
2022-09-15T02:27:27.498Z,86.97
2022-09-15T02:28:08.546Z,86.89
2022-09-15T02:28:43.178Z,86.94
2022-09-15T02:29:18.638Z,86.95
2022-09-15T02:29:54.874Z,87.01
2022-09-15T02:30:29.566Z,86.90
2022-09-15T02:31:05.200Z,86.67
2022-09-15T02:31:39.833Z,86.59
2022-09-15T02:32:15.346Z,86.52
2022-09-15T02:33:08.471Z,86.54
2022-09-15T02:33:45.110Z,86.62
2022-09-15T02:34:21.942Z,86.50
2022-09-15T02:34:57.146Z,86.56
2022-09-15T02:35:31.439Z,86.81
2022-09-15T02:36:04.146Z,86.82
2022-09-15T02:36:36.314Z,86.78
2022-09-15T02:37:10.322Z,86.77
2022-09-15T02:37:42.499Z,86.65
2022-09-15T02:38:15.173Z,86.86
2022-09-15T02:38:53.455Z,86.91
2022-09-15T02:39:32.968Z,86.96
2022-09-15T02:40:06.887Z,86.99
2022-09-15T02:40:44.444Z,87.03
2022-09-15T02:41:17.245Z,87.07
2022-09-15T02:41:49.356Z,86.89
2022-09-15T02:42:26.864Z,86.80
2022-09-15T02:43:01.826Z,86.76
2022-09-15T02:43:34.201Z,86.52
2022-09-15T02:44:09.450Z,86.67
2022-09-15T02:44:42.249Z,86.48
2022-09-15T02:45:14.600Z,86.49
2022-09-15T02:45:46.780Z,86.28
2022-09-15T02:46:21.304Z,86.25
2022-09-15T02:46:53.348Z,86.31
2022-09-15T02:47:25.676Z,86.55
2022-09-15T02:47:58.367Z,87.16
2022-09-15T02:48:30.210Z,87.94
2022-09-15T02:49:02.666Z,88.11
2022-09-15T02:49:34.860Z,88.03
2022-09-15T02:50:07.237Z,87.81
2022-09-15T02:50:39.527Z,87.81
2022-09-15T02:51:11.574Z,88.46
2022-09-15T02:51:43.415Z,88.44
2022-09-15T02:52:15.861Z,88.40
2022-09-15T02:52:47.747Z,88.18
2022-09-15T02:53:19.586Z,88.15
2022-09-15T02:53:51.497Z,87.83
2022-09-15T02:54:23.373Z,87.42
2022-09-15T02:54:56.023Z,87.34
2022-09-15T02:55:29.028Z,87.10
2022-09-15T02:56:01.060Z,87.08
2022-09-15T02:56:32.956Z,87.09
2022-09-15T02:57:05.161Z,86.99
2022-09-15T02:57:37.080Z,87.01
2022-09-15T02:58:08.929Z,87.11
2022-09-15T02:58:40.775Z,87.21
2022-09-15T02:59:12.613Z,87.37
2022-09-15T03:00:03.548Z,87.27
2022-09-15T03:00:38.598Z,87.16
2022-09-15T03:01:15.100Z,87.40
2022-09-15T03:01:47.121Z,87.69
2022-09-15T03:02:20.523Z,87.75
2022-09-15T03:02:54.484Z,88.02
2022-09-15T03:03:26.324Z,88.33
2022-09-15T03:03:58.716Z,88.62
2022-09-15T03:04:30.894Z,88.57
2022-09-15T03:05:02.839Z,88.35
2022-09-15T03:05:34.662Z,87.97
2022-09-15T03:06:19.884Z,87.47
2022-09-15T03:06:51.736Z,87.30
2022-09-15T03:07:24.994Z,87.11
2022-09-15T03:07:57.368Z,87.45
2022-09-15T03:08:29.206Z,87.69
2022-09-15T03:09:04.585Z,88.10
2022-09-15T03:09:37.352Z,87.96
2022-09-15T03:10:11.981Z,87.95
2022-09-15T03:10:43.864Z,88.05
2022-09-15T03:11:17.110Z,88.06
2022-09-15T03:11:48.940Z,88.76
2022-09-15T03:12:20.833Z,88.46
2022-09-15T03:12:54.189Z,88.22
2022-09-15T03:13:26.980Z,87.97
2022-09-15T03:14:01.213Z,87.93
2022-09-15T03:14:33.136Z,87.95
2022-09-15T03:15:06.327Z,88.03
2022-09-15T03:15:38.356Z,87.95
2022-09-15T03:16:12.187Z,87.83
2022-09-15T03:16:44.382Z,87.63
2022-09-15T03:17:17.403Z,87.56
2022-09-15T03:17:49.703Z,87.54
2022-09-15T03:18:21.539Z,87.48
2022-09-15T03:18:59.450Z,87.45
2022-09-15T03:19:31.801Z,87.46
2022-09-15T03:20:05.888Z,87.40
2022-09-15T03:20:37.719Z,87.40
2022-09-15T03:21:12.226Z,87.42
2022-09-15T03:21:44.360Z,87.69
2022-09-15T03:22:16.292Z,87.53
2022-09-15T03:22:49.582Z,87.47
2022-09-15T03:23:21.579Z,87.41
2022-09-15T03:23:53.427Z,87.33
2022-09-15T03:24:25.287Z,86.99
2022-09-15T03:24:57.141Z,86.94
2022-09-15T03:25:29.700Z,87.00
2022-09-15T03:26:02.055Z,87.04
2022-09-15T03:26:33.889Z,87.00
2022-09-15T03:27:06.059Z,87.09
2022-09-15T03:27:38.499Z,87.21
2022-09-15T03:28:11.078Z,87.13
2022-09-15T03:28:43.024Z,87.28
2022-09-15T03:29:15.692Z,87.42
2022-09-15T03:29:48.238Z,87.54
2022-09-15T03:30:20.213Z,87.55
2022-09-15T03:30:52.587Z,87.54
2022-09-15T03:31:24.552Z,87.45
2022-09-15T03:31:56.860Z,87.52
2022-09-15T03:32:29.041Z,87.46
2022-09-15T03:33:00.880Z,87.33
2022-09-15T03:33:33.020Z,87.23
2022-09-15T03:34:04.893Z,87.19
2022-09-15T03:34:36.708Z,87.22
2022-09-15T03:35:08.973Z,87.38
2022-09-15T03:35:40.804Z,87.33
2022-09-15T03:36:12.670Z,87.31
2022-09-15T03:36:44.712Z,87.24
2022-09-15T03:37:16.609Z,87.31
2022-09-15T03:37:48.800Z,87.45
2022-09-15T03:38:20.835Z,87.49
2022-09-15T03:38:52.749Z,87.26
2022-09-15T03:39:24.954Z,87.22
2022-09-15T03:39:56.899Z,87.10
2022-09-15T03:40:29.166Z,86.63
2022-09-15T03:41:11.973Z,86.49
2022-09-15T03:41:44.036Z,86.28
2022-09-15T03:42:16.366Z,86.28
2022-09-15T03:42:48.630Z,86.30
2022-09-15T03:43:20.883Z,86.41
2022-09-15T03:43:52.746Z,86.35
2022-09-15T03:44:24.850Z,86.33
2022-09-15T03:44:56.674Z,86.24
2022-09-15T03:45:28.588Z,86.21
2022-09-15T03:46:01.074Z,86.29
2022-09-15T03:46:33.054Z,86.35
2022-09-15T03:47:05.019Z,86.38
2022-09-15T03:47:36.863Z,86.30
2022-09-15T03:48:09.026Z,86.19
2022-09-15T03:48:40.964Z,86.01
2022-09-15T03:49:13.370Z,86.07
2022-09-15T03:49:45.203Z,86.10
2022-09-15T03:50:17.233Z,86.08
2022-09-15T03:50:49.403Z,86.21
2022-09-15T03:51:22.018Z,86.33
2022-09-15T03:51:53.879Z,86.60
2022-09-15T03:52:26.224Z,86.64
2022-09-15T03:53:00.810Z,86.56
2022-09-15T03:53:34.421Z,86.70
2022-09-15T03:54:06.277Z,86.98
2022-09-15T03:54:38.129Z,87.24
2022-09-15T03:55:10.198Z,87.37
2022-09-15T03:55:42.135Z,87.38
2022-09-15T03:56:24.278Z,87.36
2022-09-15T03:56:56.231Z,87.34
2022-09-15T03:57:28.186Z,87.19
2022-09-15T03:58:00.059Z,87.09
2022-09-15T03:58:32.217Z,86.82
2022-09-15T03:59:05.771Z,86.99
2022-09-15T03:59:37.620Z,86.93
2022-09-15T04:00:10.237Z,86.93
2022-09-15T04:00:43.614Z,86.67
2022-09-15T04:01:15.587Z,86.63
2022-09-15T04:01:48.706Z,86.63
2022-09-15T04:02:21.042Z,86.44
2022-09-15T04:02:52.997Z,86.51
2022-09-15T04:03:24.950Z,86.52
2022-09-15T04:03:57.920Z,86.47
2022-09-15T04:04:29.878Z,86.48
2022-09-15T04:05:02.901Z,86.19
2022-09-15T04:05:36.069Z,86.28
2022-09-15T04:06:08.389Z,86.26
2022-09-15T04:06:41.275Z,86.22
2022-09-15T04:07:13.124Z,86.19
2022-09-15T04:07:44.934Z,86.04
2022-09-15T04:08:17.673Z,85.89
2022-09-15T04:08:50.674Z,85.75
2022-09-15T04:09:22.727Z,85.74
2022-09-15T04:09:54.545Z,85.67
2022-09-15T04:10:26.412Z,85.69
2022-09-15T04:11:00.323Z,85.59
2022-09-15T04:11:32.473Z,85.80
2022-09-15T04:12:04.735Z,85.87
2022-09-15T04:12:36.983Z,85.89
2022-09-15T04:13:08.851Z,85.91
2022-09-15T04:13:42.103Z,85.65
2022-09-15T04:14:13.952Z,85.83
2022-09-15T04:14:46.621Z,85.88
2022-09-15T04:15:20.381Z,85.83
2022-09-15T04:16:03.211Z,85.90
2022-09-15T04:16:35.479Z,85.70
2022-09-15T04:17:07.401Z,85.46
2022-09-15T04:17:39.227Z,85.48
2022-09-15T04:18:11.057Z,85.38
2022-09-15T04:18:43.273Z,85.12
2022-09-15T04:19:15.146Z,85.28
2022-09-15T04:19:47.040Z,85.59
2022-09-15T04:20:19.037Z,85.41
2022-09-15T04:20:51.094Z,85.18
2022-09-15T04:21:25.375Z,85.22
2022-09-15T04:21:57.541Z,85.46
2022-09-15T04:22:32.581Z,85.52
2022-09-15T04:23:04.481Z,85.48
2022-09-15T04:23:36.399Z,85.48
2022-09-15T04:24:08.575Z,85.41
2022-09-15T04:24:40.401Z,85.15
2022-09-15T04:25:12.254Z,85.22
2022-09-15T04:25:44.091Z,84.95
2022-09-15T04:26:19.143Z,85.01
2022-09-15T04:26:51.055Z,85.03
2022-09-15T04:27:23.245Z,85.09
2022-09-15T04:27:56.975Z,84.95
2022-09-15T04:28:31.970Z,84.99
2022-09-15T04:29:05.749Z,85.15
2022-09-15T04:29:37.669Z,85.08
2022-09-15T04:30:10.104Z,84.58
2022-09-15T04:30:41.972Z,84.51
2022-09-15T04:31:16.117Z,84.77
2022-09-15T04:31:48.782Z,85.07
2022-09-15T04:32:21.166Z,85.28
2022-09-15T04:32:53.957Z,85.30
2022-09-15T04:33:25.798Z,85.00
2022-09-15T04:33:57.679Z,85.10
2022-09-15T04:34:29.533Z,85.09
2022-09-15T04:35:01.955Z,85.13
2022-09-15T04:35:34.088Z,84.95
2022-09-15T04:36:12.343Z,84.72
2022-09-15T04:36:44.669Z,84.80
2022-09-15T04:37:16.533Z,84.74
2022-09-15T04:37:48.617Z,84.61
2022-09-15T04:38:20.744Z,84.61
2022-09-15T04:38:53.005Z,84.65
2022-09-15T04:39:25.601Z,84.63
2022-09-15T04:39:57.573Z,84.45
2022-09-15T04:40:29.842Z,84.53
2022-09-15T04:41:02.574Z,84.55
2022-09-15T04:41:34.527Z,84.55
2022-09-15T04:42:07.864Z,84.50
2022-09-15T04:42:39.785Z,84.61
2022-09-15T04:43:11.958Z,84.44
2022-09-15T04:43:44.374Z,84.40
2022-09-15T04:44:16.234Z,84.22
2022-09-15T04:44:48.117Z,84.19
2022-09-15T04:45:19.964Z,84.11
2022-09-15T04:45:52.179Z,84.06
2022-09-15T04:46:24.067Z,84.30
2022-09-15T04:46:56.006Z,84.33
2022-09-15T04:47:27.971Z,84.17
2022-09-15T04:48:00.248Z,84.02
2022-09-15T04:48:32.643Z,83.88
2022-09-15T04:49:04.946Z,83.87
2022-09-15T04:49:36.818Z,83.99
2022-09-15T04:50:08.912Z,83.97
2022-09-15T04:50:40.791Z,83.54
2022-09-15T04:51:15.564Z,83.69
2022-09-15T04:51:47.444Z,83.75
2022-09-15T04:52:19.414Z,83.50
2022-09-15T04:52:52.129Z,83.65
2022-09-15T04:53:23.975Z,83.77
2022-09-15T04:53:55.924Z,83.63
2022-09-15T04:54:28.109Z,83.41
2022-09-15T04:55:00.415Z,83.54
2022-09-15T04:55:35.546Z,83.45
2022-09-15T04:56:19.530Z,83.17
2022-09-15T04:56:51.477Z,82.95
2022-09-15T04:57:23.343Z,83.10
2022-09-15T04:57:55.556Z,83.45
2022-09-15T04:58:27.753Z,83.44
2022-09-15T04:59:03.919Z,83.31
2022-09-15T04:59:36.609Z,83.06
2022-09-15T05:00:09.178Z,83.03
2022-09-15T05:00:45.785Z,83.12
2022-09-15T05:01:25.333Z,83.25
2022-09-15T05:01:57.308Z,83.30
2022-09-15T05:02:29.234Z,82.94
2022-09-15T05:03:01.120Z,82.56
2022-09-15T05:03:36.306Z,82.58
2022-09-15T05:04:08.175Z,82.61
2022-09-15T05:04:40.416Z,82.53
2022-09-15T05:05:12.298Z,82.68
2022-09-15T05:05:44.122Z,82.71
2022-09-15T05:06:19.144Z,82.67
2022-09-15T05:06:50.982Z,82.54
2022-09-15T05:07:22.872Z,82.31
2022-09-15T05:07:54.901Z,82.45
2022-09-15T05:08:26.758Z,82.50
2022-09-15T05:08:59.023Z,82.36
2022-09-15T05:09:31.265Z,82.24
2022-09-15T05:10:03.686Z,82.40
2022-09-15T05:10:35.627Z,82.46
2022-09-15T05:11:12.266Z,82.49
2022-09-15T05:11:44.092Z,82.50
2022-09-15T05:12:16.001Z,82.70
2022-09-15T05:12:47.924Z,82.58
2022-09-15T05:13:19.874Z,82.62
2022-09-15T05:13:52.228Z,82.48
2022-09-15T05:14:24.051Z,82.79
2022-09-15T05:14:55.895Z,83.19
2022-09-15T05:15:28.056Z,83.11
2022-09-15T05:16:17.476Z,83.00
2022-09-15T05:16:49.462Z,82.72
2022-09-15T05:17:24.061Z,82.98
2022-09-15T05:17:58.578Z,82.64
2022-09-15T05:18:31.510Z,82.51
2022-09-15T05:19:04.604Z,82.38
2022-09-15T05:19:36.772Z,82.51
2022-09-15T05:20:09.244Z,82.49
2022-09-15T05:20:41.377Z,82.61
2022-09-15T05:21:15.851Z,82.42
2022-09-15T05:21:47.695Z,82.24
2022-09-15T05:22:20.342Z,81.83
2022-09-15T05:22:52.210Z,81.79
2022-09-15T05:23:24.223Z,81.70
2022-09-15T05:23:56.447Z,81.34
2022-09-15T05:24:28.331Z,81.04
2022-09-15T05:25:00.317Z,81.14
2022-09-15T05:25:32.206Z,81.02
2022-09-15T05:26:07.965Z,80.97
2022-09-15T05:26:40.042Z,80.90
2022-09-15T05:27:11.920Z,81.17
2022-09-15T05:27:43.774Z,81.66
2022-09-15T05:28:15.651Z,81.82
2022-09-15T05:28:47.677Z,81.77
2022-09-15T05:29:19.592Z,81.98
2022-09-15T05:30:04.337Z,82.06
2022-09-15T05:30:44.614Z,81.94
2022-09-15T05:31:27.083Z,81.88
2022-09-15T05:31:59.144Z,82.03
2022-09-15T05:32:30.961Z,82.10
2022-09-15T05:33:02.939Z,81.93
2022-09-15T05:33:34.896Z,81.89
2022-09-15T05:34:07.261Z,81.92
2022-09-15T05:34:39.113Z,81.91
2022-09-15T05:35:10.951Z,82.06
2022-09-15T05:35:53.710Z,82.01
2022-09-15T05:36:25.938Z,82.03
2022-09-15T05:36:57.971Z,81.89
2022-09-15T05:37:29.818Z,82.16
2022-09-15T05:38:02.119Z,82.49
2022-09-15T05:38:34.022Z,82.71
2022-09-15T05:39:05.851Z,82.89
2022-09-15T05:39:39.374Z,82.62
2022-09-15T05:40:11.470Z,82.51
2022-09-15T05:40:43.348Z,82.72
2022-09-15T05:41:17.635Z,83.21
2022-09-15T05:41:50.128Z,83.13
2022-09-15T05:42:21.971Z,83.47
2022-09-15T05:42:53.851Z,83.40
2022-09-15T05:43:25.724Z,83.52
2022-09-15T05:43:59.079Z,83.56
2022-09-15T05:44:31.601Z,83.43
2022-09-15T05:45:03.662Z,83.18
2022-09-15T05:45:35.532Z,83.17
2022-09-15T05:46:08.369Z,83.25
2022-09-15T05:46:40.316Z,83.16
2022-09-15T05:47:12.604Z,83.44
2022-09-15T05:47:44.429Z,83.65
2022-09-15T05:48:16.261Z,83.84
2022-09-15T05:48:48.134Z,83.85
2022-09-15T05:49:20.004Z,84.17
2022-09-15T05:49:52.057Z,84.36
2022-09-15T05:50:23.913Z,84.55
2022-09-15T05:50:56.902Z,84.74
2022-09-15T05:51:30.185Z,84.73
2022-09-15T05:52:02.386Z,84.81
2022-09-15T05:52:35.819Z,85.03
2022-09-15T05:53:07.874Z,85.22
2022-09-15T05:53:40.138Z,85.04
2022-09-15T05:54:11.931Z,85.08
2022-09-15T05:54:43.823Z,85.27
2022-09-15T05:55:15.688Z,85.15
2022-09-15T05:55:47.871Z,85.13
2022-09-15T05:56:20.188Z,85.37
2022-09-15T05:56:52.015Z,84.95
2022-09-15T05:57:23.840Z,85.01
2022-09-15T05:57:56.004Z,84.88
2022-09-15T05:58:28.071Z,84.91
2022-09-15T05:58:59.902Z,85.46
2022-09-15T05:59:31.718Z,85.42
2022-09-15T06:00:04.367Z,85.48
2022-09-15T06:00:43.553Z,85.53
2022-09-15T06:01:24.635Z,85.35
2022-09-15T06:01:56.596Z,85.08
2022-09-15T06:02:28.620Z,85.30
2022-09-15T06:03:00.678Z,85.44
2022-09-15T06:03:32.761Z,85.45
2022-09-15T06:04:04.938Z,85.09
2022-09-15T06:04:36.776Z,85.00
2022-09-15T06:05:09.001Z,84.89
2022-09-15T06:05:41.446Z,85.18
2022-09-15T06:06:13.827Z,85.30
2022-09-15T06:06:46.312Z,85.04
2022-09-15T06:07:18.144Z,84.95
2022-09-15T06:07:53.386Z,84.94
2022-09-15T06:08:25.232Z,85.12
2022-09-15T06:08:58.891Z,85.23
2022-09-15T06:09:31.212Z,85.21
2022-09-15T06:10:06.565Z,84.75
2022-09-15T06:10:38.951Z,84.84
2022-09-15T06:11:19.354Z,84.86
2022-09-15T06:11:52.209Z,84.95
2022-09-15T06:12:24.129Z,85.03
2022-09-15T06:12:56.658Z,84.78
2022-09-15T06:13:28.657Z,84.99
2022-09-15T06:14:03.153Z,85.10
2022-09-15T06:14:35.113Z,84.91
2022-09-15T06:15:07.449Z,84.96
2022-09-15T06:15:39.276Z,84.88
2022-09-15T06:16:14.073Z,84.96
2022-09-15T06:16:45.961Z,84.75
2022-09-15T06:17:18.216Z,84.99
2022-09-15T06:17:50.755Z,85.05
2022-09-15T06:18:22.621Z,85.25
2022-09-15T06:18:54.557Z,85.23
2022-09-15T06:19:26.438Z,84.97
2022-09-15T06:19:58.356Z,84.83
2022-09-15T06:20:30.210Z,84.96
2022-09-15T06:21:23.235Z,84.85
2022-09-15T06:21:55.101Z,85.18
2022-09-15T06:22:28.153Z,85.16
2022-09-15T06:23:00.187Z,84.76
2022-09-15T06:23:32.481Z,84.59
2022-09-15T06:24:07.338Z,84.66
2022-09-15T06:24:39.351Z,83.95
2022-09-15T06:25:13.146Z,84.08
2022-09-15T06:25:44.996Z,84.16
2022-09-15T06:26:19.010Z,84.06
2022-09-15T06:26:51.332Z,84.21
2022-09-15T06:27:23.193Z,83.83
2022-09-15T06:27:55.290Z,84.00
2022-09-15T06:28:27.149Z,84.09
2022-09-15T06:29:01.204Z,83.99
2022-09-15T06:29:33.167Z,84.13
2022-09-15T06:30:05.837Z,84.11
2022-09-15T06:30:40.221Z,84.09
2022-09-15T06:31:13.995Z,83.82
2022-09-15T06:31:45.961Z,83.71
2022-09-15T06:32:17.894Z,83.68
2022-09-15T06:32:49.737Z,84.05
2022-09-15T06:33:21.912Z,83.78
2022-09-15T06:33:55.966Z,84.45
2022-09-15T06:34:28.133Z,84.64
2022-09-15T06:35:00.548Z,84.57
2022-09-15T06:35:32.399Z,84.53
2022-09-15T06:36:04.375Z,84.52
2022-09-15T06:36:37.799Z,84.61
2022-09-15T06:37:09.707Z,84.82
2022-09-15T06:37:41.560Z,84.72
2022-09-15T06:38:13.461Z,84.87
2022-09-15T06:38:46.802Z,84.23
2022-09-15T06:39:19.236Z,84.72
2022-09-15T06:39:51.193Z,84.86
2022-09-15T06:40:23.265Z,84.88
2022-09-15T06:40:59.507Z,84.72
2022-09-15T06:41:47.459Z,84.54
2022-09-15T06:42:23.259Z,84.64
2022-09-15T06:42:57.050Z,84.85
2022-09-15T06:43:31.199Z,84.72
2022-09-15T06:44:03.555Z,84.68
2022-09-15T06:44:35.580Z,84.24
2022-09-15T06:45:07.905Z,84.14
2022-09-15T06:45:39.800Z,84.20
2022-09-15T06:46:14.405Z,84.58
2022-09-15T06:46:46.945Z,84.62
2022-09-15T06:47:19.768Z,84.68
2022-09-15T06:48:13.367Z,84.72
2022-09-15T06:48:48.099Z,84.52
2022-09-15T06:49:21.878Z,84.01
2022-09-15T06:49:55.731Z,83.86
2022-09-15T06:50:27.573Z,83.69
2022-09-15T06:51:00.422Z,83.54
2022-09-15T06:51:35.448Z,83.38
2022-09-15T06:52:07.353Z,83.02
2022-09-15T06:52:39.202Z,82.95
2022-09-15T06:53:11.614Z,82.99
2022-09-15T06:53:44.061Z,83.03
2022-09-15T06:54:16.289Z,83.14
2022-09-15T06:54:49.304Z,83.07
2022-09-15T06:55:21.304Z,82.13
2022-09-15T06:55:53.176Z,81.85
2022-09-15T06:56:25.019Z,81.75
2022-09-15T06:56:56.848Z,81.95
2022-09-15T06:57:28.815Z,81.97
2022-09-15T06:58:00.709Z,82.02
2022-09-15T06:58:35.390Z,81.98
2022-09-15T06:59:07.384Z,81.91
2022-09-15T06:59:39.417Z,81.86
2022-09-15T07:00:12.095Z,81.82
2022-09-15T07:00:44.208Z,81.40
2022-09-15T07:01:26.639Z,81.40
2022-09-15T07:02:02.718Z,81.38
2022-09-15T07:02:36.831Z,81.19
2022-09-15T07:03:08.856Z,80.90
2022-09-15T07:03:43.119Z,80.87
2022-09-15T07:04:14.982Z,80.83
2022-09-15T07:04:46.815Z,80.88
2022-09-15T07:05:18.934Z,80.80
2022-09-15T07:05:50.873Z,81.00
2022-09-15T07:06:23.121Z,81.40
2022-09-15T07:06:54.971Z,81.02
2022-09-15T07:07:27.807Z,80.29
2022-09-15T07:07:59.721Z,80.08
2022-09-15T07:08:31.582Z,80.03
2022-09-15T07:09:04.642Z,80.02
2022-09-15T07:09:38.846Z,80.18
2022-09-15T07:10:12.935Z,80.78
2022-09-15T07:10:46.236Z,80.63
2022-09-15T07:11:18.606Z,80.46
2022-09-15T07:11:50.707Z,80.41
2022-09-15T07:12:22.540Z,80.31
2022-09-15T07:12:55.492Z,80.54
2022-09-15T07:13:28.295Z,80.53
2022-09-15T07:14:00.278Z,80.55
2022-09-15T07:14:32.111Z,80.34
2022-09-15T07:15:04.210Z,80.39
2022-09-15T07:15:36.037Z,80.53
2022-09-15T07:16:10.217Z,80.45
2022-09-15T07:16:42.157Z,80.58
2022-09-15T07:17:14.074Z,80.28
2022-09-15T07:17:45.937Z,79.55
2022-09-15T07:18:17.768Z,79.04
2022-09-15T07:18:49.919Z,79.14
2022-09-15T07:19:21.821Z,79.07
2022-09-15T07:19:53.652Z,79.06
2022-09-15T07:20:25.780Z,78.77
2022-09-15T07:21:03.169Z,77.94
2022-09-15T07:21:35.664Z,78.20
2022-09-15T07:22:07.528Z,77.89
2022-09-15T07:22:39.383Z,77.23
2022-09-15T07:23:11.751Z,77.15
2022-09-15T07:23:44.081Z,76.74
2022-09-15T07:24:15.969Z,76.89
2022-09-15T07:24:47.830Z,77.47
2022-09-15T07:25:19.721Z,77.76
2022-09-15T07:25:51.646Z,78.05
2022-09-15T07:26:29.135Z,77.95
2022-09-15T07:27:01.253Z,77.81
2022-09-15T07:27:33.158Z,77.95
2022-09-15T07:28:04.982Z,77.76
2022-09-15T07:28:37.573Z,77.79